Time;durP1;ratioP1;P1;durP2;ratioP2;P2;SDS_P1;SDS_P2;PMS_P1;PMS_P2;Temp;Humidity;BMP_temperature;BMP_pressure;BME280_temperature;BME280_humidity;BME280_pressure;Samples;Min_cycle;Max_cycle;Signal;HPM_P1;HPM_P2
2021/05/31 00:00:16;;;;;;;12.77;8.57;;;14.60;81.50;;;;;;5009102;28;20030;-70
2021/05/31 00:02:44;;;;;;;12.98;8.32;;;14.60;81.60;;;;;;5003578;28;20064;-71
2021/05/31 00:05:10;;;;;;;11.27;8.15;;;14.60;81.60;;;;;;5008581;28;20041;-70
2021/05/31 00:07:36;;;;;;;12.18;8.52;;;14.60;81.90;;;;;;5007636;28;20021;-70
2021/05/31 00:10:03;;;;;;;12.93;8.07;;;14.50;81.80;;;;;;5008635;28;20416;-71
2021/05/31 00:12:29;;;;;;;14.00;8.70;;;14.50;82.10;;;;;;5007390;28;20041;-71
2021/05/31 00:14:54;;;;;;;14.32;9.90;;;14.50;82.20;;;;;;5008853;28;20403;-71
2021/05/31 00:17:23;;;;;;;17.42;9.93;;;14.40;82.40;;;;;;5005829;28;20033;-70
2021/05/31 00:19:48;;;;;;;17.92;9.93;;;14.40;82.70;;;;;;5008153;28;20029;-71
2021/05/31 00:22:14;;;;;;;17.75;9.68;;;14.40;82.90;;;;;;4989160;28;20045;-71
2021/05/31 00:24:40;;;;;;;13.82;8.95;;;14.40;82.80;;;;;;5007983;28;20108;-71
2021/05/31 00:27:06;;;;;;;15.82;10.20;;;14.40;82.70;;;;;;5005171;28;20522;-71
2021/05/31 00:29:32;;;;;;;15.27;9.48;;;14.40;82.90;;;;;;5014420;28;20038;-71
2021/05/31 00:31:59;;;;;;;14.80;9.82;;;14.40;83.00;;;;;;5008361;28;20034;-71
2021/05/31 00:34:25;;;;;;;13.23;9.27;;;14.40;82.80;;;;;;5007949;28;20156;-71
2021/05/31 00:36:51;;;;;;;14.90;10.18;;;14.30;82.90;;;;;;5007965;28;20022;-71
2021/05/31 00:39:20;;;;;;;14.10;9.20;;;14.30;83.10;;;;;;5008448;28;20081;-71
2021/05/31 00:41:49;;;;;;;12.88;8.77;;;14.30;83.10;;;;;;5006762;28;20045;-72
2021/05/31 00:44:15;;;;;;;15.98;10.20;;;14.20;83.50;;;;;;5008555;28;20029;-71
2021/05/31 00:46:40;;;;;;;16.13;9.52;;;14.20;83.50;;;;;;5007719;28;20033;-71
2021/05/31 00:49:06;;;;;;;15.68;9.10;;;14.10;83.70;;;;;;5008267;28;20045;-71
2021/05/31 00:51:32;;;;;;;16.50;9.25;;;14.10;83.90;;;;;;5008059;28;20062;-71
2021/05/31 00:53:59;;;;;;;13.35;9.25;;;14.10;84.00;;;;;;5007486;28;20489;-71
2021/05/31 00:56:26;;;;;;;16.45;9.18;;;14.10;84.00;;;;;;5004652;28;20024;-71
2021/05/31 00:58:52;;;;;;;13.85;9.27;;;14.00;84.20;;;;;;5006164;28;20028;-71
2021/05/31 01:01:21;;;;;;;15.27;9.82;;;14.10;84.00;;;;;;5007885;28;20468;-71
2021/05/31 01:03:47;;;;;;;13.02;9.18;;;14.00;84.00;;;;;;5001973;28;20102;-71
2021/05/31 01:06:18;;;;;;;14.88;9.57;;;14.00;84.00;;;;;;5007604;28;20105;-71
2021/05/31 01:09:28;;;;;;;13.20;9.32;;;14.00;84.00;;;;;;5007730;28;20034;-71
2021/05/31 01:12:20;;;;;;;17.27;9.85;;;14.00;84.30;;;;;;5004939;28;20081;-71
2021/05/31 01:15:04;;;;;;;17.45;10.32;;;13.90;84.70;;;;;;5004442;28;20038;-71
2021/05/31 01:17:49;;;;;;;15.68;9.23;;;13.90;85.10;;;;;;5016432;28;20033;-71
2021/05/31 01:20:41;;;;;;;14.48;9.30;;;13.90;84.90;;;;;;5004047;28;20026;-71
2021/05/31 01:23:10;;;;;;;15.98;10.40;;;13.80;84.90;;;;;;5009262;28;20042;-71
2021/05/31 01:25:47;;;;;;;16.85;10.15;;;13.80;85.10;;;;;;5007749;28;20045;-71
2021/05/31 01:28:46;;;;;;;13.35;9.13;;;13.80;85.10;;;;;;5005807;28;20041;-71
2021/05/31 01:31:16;;;;;;;16.30;9.48;;;13.80;84.70;;;;;;5003441;28;20037;-71
2021/05/31 01:33:42;;;;;;;16.42;9.45;;;13.70;84.70;;;;;;5006701;28;20045;-71
2021/05/31 01:36:09;;;;;;;11.85;7.93;;;13.70;84.70;;;;;;5007538;28;20026;-71
2021/05/31 01:38:38;;;;;;;13.63;8.32;;;13.70;84.40;;;;;;5006823;28;20085;-71
2021/05/31 01:41:05;;;;;;;15.10;8.55;;;13.70;84.20;;;;;;4999775;28;20049;-71
2021/05/31 01:43:32;;;;;;;12.43;7.82;;;13.70;84.00;;;;;;5006647;28;20057;-71
2021/05/31 01:46:00;;;;;;;12.75;9.20;;;13.70;84.00;;;;;;5007924;28;20026;-71
2021/05/31 01:48:26;;;;;;;11.80;7.72;;;13.70;84.00;;;;;;5011293;28;20057;-71
2021/05/31 01:50:52;;;;;;;13.40;7.68;;;13.70;84.00;;;;;;5007348;28;20033;-71
2021/05/31 01:53:18;;;;;;;12.00;7.68;;;13.70;83.90;;;;;;5011304;28;20044;-71
2021/05/31 01:55:44;;;;;;;12.80;8.32;;;13.60;83.90;;;;;;5013590;28;20034;-71
2021/05/31 01:58:12;;;;;;;12.10;7.88;;;13.60;83.90;;;;;;5009130;28;20447;-71
2021/05/31 02:00:37;;;;;;;12.20;7.55;;;13.60;84.00;;;;;;5009541;28;20083;-71
2021/05/31 02:03:04;;;;;;;11.68;7.97;;;13.60;84.00;;;;;;5008412;28;20034;-71
2021/05/31 02:05:30;;;;;;;10.68;7.13;;;13.60;84.00;;;;;;5011929;28;20034;-72
2021/05/31 02:07:55;;;;;;;9.30;6.20;;;13.50;84.00;;;;;;5008742;28;20030;-71
2021/05/31 02:10:21;;;;;;;11.05;7.72;;;13.50;83.90;;;;;;5011679;28;20091;-71
2021/05/31 02:12:53;;;;;;;12.38;7.60;;;13.50;84.00;;;;;;5010867;28;20096;-72
2021/05/31 02:15:27;;;;;;;14.25;7.57;;;13.50;84.30;;;;;;5010358;28;20029;-71
2021/05/31 02:18:16;;;;;;;12.50;8.35;;;13.50;84.10;;;;;;5006895;28;20030;-70
2021/05/31 02:20:49;;;;;;;11.48;7.70;;;13.40;84.10;;;;;;5010680;28;20495;-71
2021/05/31 02:23:16;;;;;;;13.82;7.82;;;13.40;84.20;;;;;;5007940;28;20060;-71
2021/05/31 02:25:42;;;;;;;13.10;8.10;;;13.40;84.20;;;;;;5010474;28;20030;-72
2021/05/31 02:28:08;;;;;;;13.80;7.90;;;13.40;84.50;;;;;;5007869;28;20444;-71
2021/05/31 02:30:34;;;;;;;13.45;8.63;;;13.30;84.50;;;;;;5009376;28;20108;-72
2021/05/31 02:33:02;;;;;;;13.15;8.20;;;13.30;84.50;;;;;;5005062;28;20057;-72
2021/05/31 02:35:35;;;;;;;13.23;8.30;;;13.30;84.80;;;;;;5009813;28;20037;-71
2021/05/31 02:38:02;;;;;;;13.43;8.38;;;13.30;84.70;;;;;;5008675;28;20381;-71
2021/05/31 02:40:28;;;;;;;12.85;8.15;;;13.20;84.80;;;;;;5009853;28;20068;-71
2021/05/31 02:42:56;;;;;;;11.23;7.43;;;13.20;84.80;;;;;;5023343;28;20034;-71
2021/05/31 02:45:24;;;;;;;14.60;8.70;;;13.20;85.10;;;;;;5010363;28;20053;-71
2021/05/31 02:47:51;;;;;;;11.48;8.25;;;13.20;85.10;;;;;;5007437;28;21042;-71
2021/05/31 02:50:17;;;;;;;13.27;8.98;;;13.10;85.20;;;;;;5009806;28;20056;-71
2021/05/31 02:52:43;;;;;;;14.30;7.93;;;13.10;85.40;;;;;;5012804;28;20480;-71
2021/05/31 02:55:11;;;;;;;13.15;8.27;;;13.10;85.30;;;;;;5010453;28;20068;-71
2021/05/31 02:57:37;;;;;;;18.77;9.63;;;13.10;85.50;;;;;;5007801;28;20053;-71
2021/05/31 03:00:05;;;;;;;15.77;8.73;;;13.10;85.90;;;;;;5009931;28;20033;-71
2021/05/31 03:02:31;;;;;;;13.32;8.82;;;13.10;85.60;;;;;;5006799;28;20030;-72
2021/05/31 03:04:57;;;;;;;14.13;8.27;;;13.00;85.70;;;;;;5009346;28;20037;-71
2021/05/31 03:07:22;;;;;;;13.30;7.78;;;13.00;85.70;;;;;;5009867;28;20563;-71
2021/05/31 03:09:48;;;;;;;14.45;8.55;;;13.00;86.20;;;;;;5009273;28;20034;-71
2021/05/31 03:12:14;;;;;;;14.05;8.05;;;13.00;85.80;;;;;;5009409;28;20489;-71
2021/05/31 03:14:39;;;;;;;14.48;8.82;;;13.00;85.70;;;;;;5008860;28;20145;-71
2021/05/31 03:17:05;;;;;;;11.95;8.68;;;13.00;85.90;;;;;;5008097;28;20033;-71
2021/05/31 03:19:31;;;;;;;12.23;8.68;;;13.00;85.80;;;;;;5006923;28;20388;-71
2021/05/31 03:21:57;;;;;;;16.88;8.88;;;13.00;85.80;;;;;;5009098;28;20026;-71
2021/05/31 03:24:22;;;;;;;13.98;8.48;;;12.90;86.00;;;;;;5007181;28;20385;-71
2021/05/31 03:26:48;;;;;;;14.55;9.43;;;12.90;86.00;;;;;;5008461;28;20117;-71
2021/05/31 03:29:14;;;;;;;13.88;8.70;;;12.90;86.00;;;;;;5009440;28;20041;-71
2021/05/31 03:31:40;;;;;;;15.80;9.25;;;12.90;86.10;;;;;;5007365;28;20038;-71
2021/05/31 03:34:05;;;;;;;13.57;8.55;;;12.90;86.40;;;;;;5005747;28;20056;-71
2021/05/31 03:36:31;;;;;;;13.35;8.75;;;12.90;86.50;;;;;;5008764;28;20028;-71
2021/05/31 03:38:57;;;;;;;15.65;8.90;;;12.90;86.40;;;;;;5008731;28;20088;-71
2021/05/31 03:41:22;;;;;;;14.40;8.60;;;12.90;86.40;;;;;;5009178;28;20069;-71
2021/05/31 03:43:48;;;;;;;13.38;8.20;;;12.90;86.40;;;;;;5007657;28;20039;-71
2021/05/31 03:46:14;;;;;;;13.93;8.43;;;12.90;86.40;;;;;;5009047;28;20038;-71
2021/05/31 03:48:39;;;;;;;17.38;8.73;;;12.90;86.20;;;;;;5008616;28;20029;-71
2021/05/31 03:51:08;;;;;;;13.65;7.75;;;12.90;86.50;;;;;;5006786;28;20026;-72
2021/05/31 03:53:36;;;;;;;15.13;8.23;;;12.90;86.10;;;;;;5007058;28;20045;-71
2021/05/31 03:56:02;;;;;;;12.20;8.35;;;12.90;86.30;;;;;;5005823;28;20033;-72
2021/05/31 03:58:27;;;;;;;14.55;9.68;;;12.90;86.50;;;;;;5006147;28;20026;-71
2021/05/31 04:00:53;;;;;;;13.27;9.25;;;12.90;86.50;;;;;;5005849;28;20060;-71
2021/05/31 04:03:20;;;;;;;12.95;8.48;;;12.90;86.40;;;;;;5007273;28;20027;-71
2021/05/31 04:05:58;;;;;;;12.27;8.75;;;12.90;86.30;;;;;;5004243;28;20033;-71
2021/05/31 04:13:53;;;;;;;14.05;8.88;;;12.90;86.50;;;;;;5008877;28;20026;-71
2021/05/31 04:16:18;;;;;;;15.98;8.85;;;12.90;86.70;;;;;;5007014;28;20084;-71
2021/05/31 04:18:44;;;;;;;13.73;8.90;;;13.00;87.10;;;;;;5007669;28;20022;-71
2021/05/31 04:21:10;;;;;;;13.80;10.02;;;13.00;87.00;;;;;;5006582;28;20388;-71
2021/05/31 04:23:35;;;;;;;12.07;8.73;;;13.00;87.00;;;;;;5005745;28;20432;-71
2021/05/31 04:26:01;;;;;;;14.65;9.38;;;13.00;86.60;;;;;;5009165;28;20039;-71
2021/05/31 04:28:28;;;;;;;14.45;8.93;;;13.00;86.70;;;;;;5007669;28;20053;-71
2021/05/31 04:30:56;;;;;;;17.40;9.63;;;13.10;86.60;;;;;;5007852;28;20249;-71
2021/05/31 04:33:22;;;;;;;15.32;9.50;;;13.10;86.30;;;;;;5008353;28;20037;-71
2021/05/31 04:35:48;;;;;;;13.25;8.68;;;13.20;86.10;;;;;;5005701;28;20029;-72
2021/05/31 04:38:14;;;;;;;12.52;8.15;;;13.20;85.80;;;;;;5008712;28;20295;-71
2021/05/31 04:40:39;;;;;;;12.82;8.02;;;13.20;85.70;;;;;;5005960;28;20060;-71
2021/05/31 04:43:05;;;;;;;14.23;8.38;;;13.30;85.60;;;;;;5008151;28;20046;-71
2021/05/31 04:45:31;;;;;;;13.85;8.90;;;13.30;85.50;;;;;;4989358;28;20034;-71
2021/05/31 04:47:56;;;;;;;15.35;8.73;;;13.30;85.40;;;;;;5007763;28;20037;-72
2021/05/31 04:50:22;;;;;;;13.93;8.10;;;13.40;85.20;;;;;;5009064;28;20101;-72
2021/05/31 04:52:48;;;;;;;14.35;8.10;;;13.40;84.80;;;;;;5007733;28;20122;-72
2021/05/31 04:55:18;;;;;;;13.05;8.07;;;13.40;84.50;;;;;;5006007;28;20113;-72
2021/05/31 04:57:44;;;;;;;12.55;7.55;;;13.40;83.80;;;;;;5006743;28;20484;-71
2021/05/31 05:00:12;;;;;;;13.02;7.75;;;13.40;82.60;;;;;;5008395;28;20084;-72
2021/05/31 05:02:37;;;;;;;9.95;6.65;;;13.40;81.60;;;;;;5005306;28;20559;-71
2021/05/31 05:05:04;;;;;;;12.02;7.30;;;13.40;81.00;;;;;;5007192;28;20041;-71
2021/05/31 05:07:30;;;;;;;9.85;6.13;;;13.50;80.20;;;;;;5007480;28;20030;-71
2021/05/31 05:09:56;;;;;;;11.02;6.28;;;13.40;79.60;;;;;;5009221;28;20064;-71
2021/05/31 05:12:21;;;;;;;10.13;5.70;;;13.50;79.40;;;;;;5008932;28;20036;-71
2021/05/31 05:14:47;;;;;;;15.77;6.20;;;13.50;79.40;;;;;;5007143;28;20038;-70
2021/05/31 05:17:13;;;;;;;9.73;6.75;;;13.50;78.10;;;;;;5008168;28;20031;-71
2021/05/31 05:19:39;;;;;;;15.90;6.47;;;13.50;77.90;;;;;;5012695;28;20033;-71
2021/05/31 05:22:04;;;;;;;10.77;6.10;;;13.50;77.80;;;;;;5011103;28;20369;-71
2021/05/31 05:24:32;;;;;;;9.85;5.53;;;13.60;77.70;;;;;;5012431;28;20108;-71
2021/05/31 05:26:59;;;;;;;9.63;5.45;;;13.60;77.30;;;;;;5010768;28;20030;-71
2021/05/31 05:29:25;;;;;;;8.45;4.75;;;13.70;76.90;;;;;;5009847;28;20164;-71
2021/05/31 05:31:51;;;;;;;10.50;5.05;;;13.70;76.40;;;;;;5011257;28;20129;-72
2021/05/31 05:34:16;;;;;;;7.80;4.82;;;13.70;74.60;;;;;;5009836;28;20022;-71
2021/05/31 05:36:55;;;;;;;7.65;4.68;;;13.70;74.60;;;;;;5002247;28;20113;-71
2021/05/31 05:47:46;;;;;;;9.85;4.43;;;13.90;73.90;;;;;;5012126;28;20038;-74
2021/05/31 05:50:19;;;;;;;10.77;5.13;;;13.90;73.20;;;;;;5010276;28;20040;-74
2021/05/31 05:52:45;;;;;;;9.32;4.70;;;13.90;72.00;;;;;;5010309;28;20022;-72
2021/05/31 05:55:12;;;;;;;8.48;3.92;;;14.00;71.80;;;;;;5007187;28;20030;-68
2021/05/31 05:57:39;;;;;;;7.80;4.28;;;14.00;71.90;;;;;;5011328;28;20211;-68
2021/05/31 06:00:11;;;;;;;7.35;3.65;;;14.00;72.10;;;;;;5011224;28;20030;-70
2021/05/31 06:02:37;;;;;;;5.78;3.03;;;14.10;70.80;;;;;;5008695;28;20022;-68
2021/05/31 06:05:07;;;;;;;8.13;3.58;;;14.10;71.30;;;;;;5011688;28;20026;-69
2021/05/31 06:07:33;;;;;;;8.10;2.97;;;14.10;70.60;;;;;;5008338;28;20049;-69
2021/05/31 06:10:00;;;;;;;5.45;2.67;;;14.20;69.10;;;;;;5010660;28;20510;-69
2021/05/31 06:12:26;;;;;;;5.05;2.75;;;14.20;68.40;;;;;;5010197;28;20053;-69
2021/05/31 06:14:52;;;;;;;5.40;2.70;;;14.30;68.10;;;;;;5009326;28;20396;-68
2021/05/31 06:17:18;;;;;;;5.07;2.45;;;14.30;67.10;;;;;;5009860;28;20033;-68
2021/05/31 06:19:44;;;;;;;4.07;2.22;;;14.30;65.60;;;;;;5026520;28;20038;-68
2021/05/31 06:22:09;;;;;;;3.92;2.53;;;14.40;66.50;;;;;;5011578;28;20045;-69
2021/05/31 06:24:35;;;;;;;4.57;2.75;;;14.40;66.80;;;;;;5018116;28;20025;-69
2021/05/31 06:27:01;;;;;;;3.72;2.50;;;14.50;66.00;;;;;;5010449;28;20030;-69
2021/05/31 06:29:27;;;;;;;5.60;2.20;;;14.50;63.60;;;;;;5006823;28;20646;-69
2021/05/31 06:31:53;;;;;;;3.85;2.10;;;14.50;63.20;;;;;;5006397;28;20888;-68
2021/05/31 06:34:18;;;;;;;6.65;2.50;;;14.60;62.70;;;;;;5007605;28;20052;-69
2021/05/31 06:36:47;;;;;;;5.88;2.55;;;14.60;63.10;;;;;;5007788;28;20037;-67
2021/05/31 06:39:14;;;;;;;6.53;2.67;;;14.70;61.00;;;;;;5004994;28;20068;-68
2021/05/31 06:41:40;;;;;;;4.95;2.20;;;14.70;61.60;;;;;;5008185;28;20038;-68
2021/05/31 06:44:06;;;;;;;3.97;2.30;;;14.70;63.00;;;;;;5009468;28;20089;-69
2021/05/31 06:46:32;;;;;;;4.25;2.42;;;14.70;63.70;;;;;;5009266;28;20022;-68
2021/05/31 06:48:58;;;;;;;6.75;2.50;;;14.80;60.80;;;;;;5009496;28;20029;-69
2021/05/31 06:51:24;;;;;;;5.28;2.75;;;14.90;59.20;;;;;;5006619;28;20080;-67
2021/05/31 06:53:52;;;;;;;4.10;2.50;;;14.90;60.50;;;;;;5007447;28;20669;-67
2021/05/31 06:56:19;;;;;;;6.82;2.70;;;14.90;61.40;;;;;;5008207;28;20034;-70
2021/05/31 06:58:46;;;;;;;5.93;2.35;;;15.00;61.80;;;;;;5009734;28;20026;-68
2021/05/31 07:01:11;;;;;;;6.30;2.72;;;15.00;61.90;;;;;;5006244;28;20034;-69
2021/05/31 07:03:38;;;;;;;6.07;2.72;;;15.10;62.60;;;;;;5007012;28;20065;-74
2021/05/31 07:06:05;;;;;;;3.83;2.20;;;15.10;62.30;;;;;;5006996;28;20072;-69
2021/05/31 07:08:31;;;;;;;6.10;2.58;;;15.10;61.40;;;;;;5007197;28;20577;-69
2021/05/31 07:11:01;;;;;;;6.32;2.95;;;15.20;60.90;;;;;;5011994;28;20060;-73
2021/05/31 07:13:29;;;;;;;3.83;2.03;;;15.30;60.90;;;;;;5009148;28;20063;-68
2021/05/31 07:15:55;;;;;;;5.18;2.58;;;15.30;61.00;;;;;;5008575;28;20435;-69
2021/05/31 07:18:22;;;;;;;6.35;2.53;;;15.30;61.70;;;;;;5008640;28;20030;-70
2021/05/31 07:20:49;;;;;;;4.75;2.53;;;15.40;61.40;;;;;;5010569;28;20483;-71
2021/05/31 07:23:16;;;;;;;4.60;2.55;;;15.40;60.50;;;;;;5007955;28;20037;-70
2021/05/31 07:25:42;;;;;;;5.72;2.13;;;15.50;60.60;;;;;;5013245;28;20030;-71
2021/05/31 07:28:08;;;;;;;3.15;1.80;;;15.50;59.00;;;;;;5008376;28;20037;-70
2021/05/31 07:30:34;;;;;;;4.40;2.30;;;15.60;58.90;;;;;;5006874;28;20477;-71
2021/05/31 07:33:01;;;;;;;2.95;2.10;;;15.60;59.20;;;;;;5009713;28;20040;-70
2021/05/31 07:35:27;;;;;;;3.63;2.30;;;15.60;59.80;;;;;;5010688;28;20514;-70
2021/05/31 07:37:53;;;;;;;5.60;2.10;;;15.60;59.60;;;;;;5009425;28;20029;-70
2021/05/31 07:40:19;;;;;;;3.70;1.92;;;15.70;57.80;;;;;;5009295;28;20109;-68
2021/05/31 07:42:46;;;;;;;4.22;2.20;;;15.70;58.00;;;;;;5012278;28;20025;-73
2021/05/31 07:45:13;;;;;;;3.67;1.90;;;15.80;58.70;;;;;;5010488;28;20140;-72
2021/05/31 07:47:39;;;;;;;3.08;2.10;;;15.90;59.00;;;;;;5005174;28;20029;-72
2021/05/31 07:50:07;;;;;;;4.40;1.92;;;15.90;58.40;;;;;;5008637;28;20551;-72
2021/05/31 07:52:34;;;;;;;3.92;2.25;;;15.90;58.20;;;;;;5009270;28;20034;-72
2021/05/31 07:55:00;;;;;;;3.95;1.98;;;16.00;57.90;;;;;;5025773;28;20097;-71
2021/05/31 07:57:26;;;;;;;4.88;2.38;;;16.00;57.30;;;;;;5009064;28;20041;-70
2021/05/31 07:59:53;;;;;;;5.80;2.53;;;16.10;54.70;;;;;;5006959;28;20113;-71
2021/05/31 08:02:19;;;;;;;3.28;2.00;;;16.20;56.70;;;;;;5003455;28;20036;-71
2021/05/31 08:04:46;;;;;;;3.72;1.85;;;16.20;54.30;;;;;;5010561;28;20105;-71
2021/05/31 08:07:12;;;;;;;3.08;2.00;;;16.20;55.70;;;;;;5008271;28;20084;-71
2021/05/31 08:09:39;;;;;;;4.07;1.80;;;16.30;56.10;;;;;;5006722;28;20055;-71
2021/05/31 08:12:06;;;;;;;4.32;1.95;;;16.30;56.40;;;;;;5006399;28;20434;-70
2021/05/31 08:14:32;;;;;;;2.95;1.77;;;16.40;54.80;;;;;;5008642;28;20034;-70
2021/05/31 08:16:58;;;;;;;3.63;2.15;;;16.40;54.60;;;;;;5008797;28;20029;-69
2021/05/31 08:19:29;;;;;;;2.33;1.98;;;16.50;49.80;;;;;;5006258;28;20030;-69
2021/05/31 08:21:55;;;;;;;3.38;1.88;;;16.50;51.70;;;;;;5008415;28;20029;-69
2021/05/31 08:24:21;;;;;;;2.45;1.77;;;16.60;50.00;;;;;;5007994;28;20091;-70
2021/05/31 08:26:47;;;;;;;2.92;1.70;;;16.60;50.60;;;;;;5010330;28;20104;-69
2021/05/31 08:29:13;;;;;;;3.60;2.10;;;16.60;51.50;;;;;;5006475;28;20038;-69
2021/05/31 08:31:39;;;;;;;2.63;1.75;;;16.70;51.30;;;;;;5009294;28;20519;-70
2021/05/31 08:34:05;;;;;;;2.45;1.65;;;16.70;52.00;;;;;;5009880;28;20054;-69
2021/05/31 08:36:31;;;;;;;1.90;1.55;;;16.80;50.50;;;;;;5013226;28;20071;-69
2021/05/31 08:38:59;;;;;;;3.47;1.38;;;16.90;48.90;;;;;;5005903;28;20130;-69
2021/05/31 08:41:27;;;;;;;2.10;1.42;;;17.00;46.90;;;;;;5008367;28;20034;-70
2021/05/31 08:43:53;;;;;;;2.88;1.60;;;17.00;47.80;;;;;;5008772;28;20889;-69
2021/05/31 08:46:19;;;;;;;3.13;1.63;;;17.10;47.60;;;;;;5008767;28;20037;-69
2021/05/31 08:48:46;;;;;;;2.58;1.52;;;17.10;46.60;;;;;;5005940;28;20033;-70
2021/05/31 08:51:12;;;;;;;2.22;1.70;;;17.20;46.80;;;;;;5003734;28;20529;-70
2021/05/31 08:53:42;;;;;;;3.05;1.67;;;17.20;47.40;;;;;;5010871;28;20472;-70
2021/05/31 08:56:08;;;;;;;4.93;1.70;;;17.30;47.00;;;;;;5012663;28;20392;-70
2021/05/31 08:58:34;;;;;;;2.45;1.70;;;17.40;47.60;;;;;;5009733;28;20041;-70
2021/05/31 09:01:00;;;;;;;2.78;1.70;;;17.40;48.10;;;;;;5012600;28;20040;-69
2021/05/31 09:03:25;;;;;;;3.63;2.15;;;17.50;46.80;;;;;;5014551;28;20077;-70
2021/05/31 09:05:57;;;;;;;2.70;1.85;;;17.50;46.70;;;;;;5011602;28;20435;-70
2021/05/31 09:08:23;;;;;;;4.80;2.10;;;17.50;46.20;;;;;;5009846;28;20034;-70
2021/05/31 09:10:54;;;;;;;4.43;2.05;;;17.60;45.90;;;;;;5012548;28;20031;-70
2021/05/31 09:13:39;;;;;;;3.40;1.75;;;17.70;46.80;;;;;;5013731;28;20030;-70
2021/05/31 09:16:14;;;;;;;3.42;1.90;;;17.80;46.90;;;;;;5010912;28;20041;-70
2021/05/31 09:18:54;;;;;;;2.50;1.52;;;17.80;46.80;;;;;;5011407;28;20029;-70
2021/05/31 09:21:28;;;;;;;3.30;2.00;;;17.90;47.10;;;;;;5012360;28;20037;-69
2021/05/31 09:23:55;;;;;;;5.53;1.85;;;17.90;46.60;;;;;;5010228;28;20583;-69
2021/05/31 09:26:20;;;;;;;3.45;1.90;;;18.00;47.20;;;;;;5007727;28;20033;-70
2021/05/31 09:29:04;;;;;;;3.75;1.85;;;18.00;48.10;;;;;;5015768;28;20415;-72
2021/05/31 09:31:31;;;;;;;3.92;2.03;;;18.10;49.10;;;;;;5010780;28;20075;-70
2021/05/31 09:33:57;;;;;;;2.97;1.92;;;18.10;49.10;;;;;;5016362;28;20041;-70
2021/05/31 09:36:24;;;;;;;3.30;2.20;;;18.20;49.60;;;;;;5009900;28;20435;-69
2021/05/31 09:38:50;;;;;;;5.03;2.35;;;18.20;49.90;;;;;;5011722;28;20022;-70
2021/05/31 09:41:34;;;;;;;4.88;2.05;;;18.30;48.30;;;;;;5017971;28;20032;-71
2021/05/31 09:44:06;;;;;;;3.17;1.90;;;18.30;48.90;;;;;;5013267;28;20117;-70
2021/05/31 09:46:44;;;;;;;4.25;2.13;;;18.40;49.60;;;;;;5011654;28;20061;-70
2021/05/31 09:49:13;;;;;;;3.08;2.10;;;18.40;49.30;;;;;;5011437;28;20492;-71
2021/05/31 09:52:09;;;;;;;3.13;1.95;;;18.50;50.00;;;;;;5011194;28;20034;-72
2021/05/31 09:54:35;;;;;;;5.38;2.03;;;18.60;50.40;;;;;;5008556;28;20038;-71
2021/05/31 09:57:18;;;;;;;4.22;2.50;;;18.60;50.40;;;;;;5010267;28;20087;-70
2021/05/31 09:59:55;;;;;;;6.22;2.33;;;18.60;50.00;;;;;;5008203;28;20507;-71
2021/05/31 10:05:59;;;;;;;3.67;2.20;;;18.60;51.90;;;;;;5009215;28;20037;-70
2021/05/31 10:08:02;;;;;;;4.15;2.60;;;18.70;52.50;;;;;;5011806;28;20054;-69
2021/05/31 10:10:29;;;;;;;5.68;2.63;;;18.70;52.60;;;;;;5014372;28;20037;-69
2021/05/31 10:12:55;;;;;;;4.25;2.45;;;18.80;52.80;;;;;;5011302;28;20049;-72
2021/05/31 10:15:29;;;;;;;4.43;2.38;;;18.80;52.10;;;;;;5012650;28;20085;-69
2021/05/31 10:17:58;;;;;;;4.05;2.38;;;18.80;51.00;;;;;;5011717;28;20097;-69
2021/05/31 10:20:25;;;;;;;3.42;2.00;;;18.90;52.70;;;;;;5013728;28;20032;-70
2021/05/31 10:22:51;;;;;;;4.22;2.03;;;18.90;53.00;;;;;;5011758;28;20068;-70
2021/05/31 10:25:19;;;;;;;5.57;2.78;;;19.00;52.50;;;;;;5009490;28;20069;-67
2021/05/31 10:27:49;;;;;;;5.63;2.67;;;19.10;53.30;;;;;;5009407;28;20036;-66
2021/05/31 10:30:17;;;;;;;5.32;2.72;;;19.10;53.00;;;;;;5009782;28;20049;-66
2021/05/31 10:32:43;;;;;;;3.90;2.58;;;19.20;52.50;;;;;;5010342;28;20038;-66
2021/05/31 10:35:25;;;;;;;3.63;2.35;;;19.20;53.00;;;;;;5009580;28;20049;-74
2021/05/31 10:37:57;;;;;;;5.70;3.40;;;19.30;53.00;;;;;;5010852;28;20519;-74
2021/05/31 10:40:34;;;;;;;6.22;2.95;;;19.30;52.50;;;;;;5016010;28;20485;-73
2021/05/31 10:43:06;;;;;;;4.75;2.72;;;19.30;50.20;;;;;;5010432;28;20060;-75
2021/05/31 10:45:32;;;;;;;4.25;2.65;;;19.30;52.50;;;;;;5009701;28;20532;-74
2021/05/31 10:48:25;;;;;;;3.65;2.55;;;19.40;51.70;;;;;;5009480;28;20402;-75
2021/05/31 10:51:00;;;;;;;2.95;2.47;;;19.40;51.70;;;;;;5012434;28;20037;-72
2021/05/31 10:53:32;;;;;;;3.67;2.40;;;19.40;51.70;;;;;;5009080;28;20409;-72
2021/05/31 10:56:10;;;;;;;3.17;2.20;;;19.50;51.90;;;;;;5009536;28;20084;-72
2021/05/31 10:58:39;;;;;;;4.00;2.35;;;19.50;52.50;;;;;;5009386;28;20030;-70
2021/05/31 11:01:09;;;;;;;3.05;2.33;;;19.60;51.60;;;;;;5010680;28;20037;-70
2021/05/31 11:03:53;;;;;;;5.40;2.10;;;19.70;50.90;;;;;;5010035;28;20125;-69
2021/05/31 11:06:24;;;;;;;7.15;2.80;;;19.70;51.80;;;;;;5008814;28;20037;-69
2021/05/31 11:08:53;;;;;;;;;;;19.80;50.70;;;;;;5009461;28;20038;-69
2021/05/31 11:11:38;;;;;;;8.98;2.70;;;19.90;52.00;;;;;;5004175;28;19979;-70
2021/05/31 11:14:04;;;;;;;2.60;2.28;;;20.10;54.50;;;;;;5009544;28;20030;-70
2021/05/31 11:16:36;;;;;;;3.42;2.50;;;20.50;52.80;;;;;;5007736;28;20365;-70
2021/05/31 11:19:08;;;;;;;2.70;2.13;;;21.00;50.10;;;;;;5012646;28;20050;-71
2021/05/31 11:21:42;;;;;;;4.65;2.30;;;21.50;50.80;;;;;;5014217;28;20807;-71
2021/05/31 11:24:10;;;;;;;4.43;2.28;;;22.60;48.70;;;;;;5010346;28;20033;-70
2021/05/31 11:26:39;;;;;;;3.97;2.20;;;24.10;45.40;;;;;;5009471;28;20030;-70
2021/05/31 11:29:07;;;;;;;3.33;2.50;;;26.00;40.20;;;;;;5007225;28;20105;-70
2021/05/31 11:31:34;;;;;;;4.18;2.47;;;27.90;38.50;;;;;;5009614;28;20057;-70
2021/05/31 11:34:00;;;;;;;3.05;2.63;;;29.10;36.50;;;;;;5010295;28;20759;-72
2021/05/31 11:36:43;;;;;;;3.55;2.70;;;30.20;33.40;;;;;;5010196;28;20049;-70
2021/05/31 11:39:17;;;;;;;3.67;2.55;;;30.90;33.00;;;;;;5015367;28;20384;-70
2021/05/31 11:41:53;;;;;;;4.55;3.17;;;31.40;32.90;;;;;;5010170;28;20030;-70
2021/05/31 11:44:30;;;;;;;5.30;2.80;;;31.80;31.70;;;;;;5005702;28;20387;-70
2021/05/31 11:47:03;;;;;;;4.03;2.50;;;32.00;29.00;;;;;;5008062;28;20026;-70
2021/05/31 11:49:36;;;;;;;3.17;2.60;;;32.10;30.30;;;;;;5009145;28;20034;-70
2021/05/31 11:52:03;;;;;;;2.92;2.30;;;31.90;30.90;;;;;;5008025;28;20031;-70
2021/05/31 11:54:33;;;;;;;2.55;2.35;;;32.10;30.90;;;;;;5008412;28;20037;-72
2021/05/31 11:57:08;;;;;;;4.85;2.63;;;32.00;30.80;;;;;;5006935;28;20073;-73
2021/05/31 11:59:36;;;;;;;3.22;2.38;;;32.10;30.00;;;;;;5005206;28;20034;-73
2021/05/31 12:02:06;;;;;;;4.40;2.60;;;32.30;28.90;;;;;;5008527;28;20196;-72
2021/05/31 12:04:32;;;;;;;4.83;2.80;;;32.10;30.60;;;;;;5007308;28;20038;-73
2021/05/31 12:07:11;;;;;;;6.10;2.70;;;32.10;29.60;;;;;;5006318;28;20488;-72
2021/05/31 12:09:42;;;;;;;3.53;2.55;;;31.80;30.50;;;;;;5008011;28;20036;-72
2021/05/31 12:12:13;;;;;;;4.38;2.72;;;31.40;30.40;;;;;;5008391;28;20076;-72
2021/05/31 12:14:48;;;;;;;3.70;2.47;;;31.20;30.40;;;;;;5007361;28;20109;-73
2021/05/31 12:17:35;;;;;;;6.50;3.10;;;30.70;30.80;;;;;;5005741;28;20034;-73
2021/05/31 12:20:08;;;;;;;4.90;2.90;;;30.20;32.20;;;;;;5008230;28;20057;-71
2021/05/31 12:22:37;;;;;;;2.97;2.30;;;29.70;33.70;;;;;;5007900;28;20091;-72
2021/05/31 12:25:03;;;;;;;4.97;2.58;;;29.50;33.40;;;;;;5006198;28;20037;-72
2021/05/31 12:27:33;;;;;;;5.10;2.90;;;29.40;33.60;;;;;;5006642;28;20033;-72
2021/05/31 12:29:59;;;;;;;2.97;2.20;;;29.40;33.40;;;;;;5006856;28;20033;-72
2021/05/31 12:32:28;;;;;;;6.80;2.90;;;29.40;33.50;;;;;;5006691;28;20088;-73
2021/05/31 12:34:55;;;;;;;2.92;2.22;;;29.70;32.60;;;;;;5007182;28;20036;-72
2021/05/31 12:37:35;;;;;;;4.80;2.38;;;29.70;32.20;;;;;;5006965;28;20061;-73
2021/05/31 12:40:07;;;;;;;3.90;2.60;;;29.80;32.10;;;;;;5007557;28;20291;-72
2021/05/31 12:42:34;;;;;;;3.83;2.58;;;30.20;32.60;;;;;;5007501;28;20050;-73
2021/05/31 12:45:03;;;;;;;3.72;2.55;;;30.60;33.20;;;;;;5006577;28;20037;-73
2021/05/31 12:47:37;;;;;;;3.38;2.50;;;30.80;32.60;;;;;;4985508;28;20056;-72
2021/05/31 12:50:10;;;;;;;4.55;2.95;;;31.10;32.90;;;;;;5005912;28;20104;-72
2021/05/31 12:52:41;;;;;;;4.47;2.60;;;31.30;31.50;;;;;;5008854;28;20022;-74
2021/05/31 12:55:16;;;;;;;2.92;2.00;;;31.50;31.30;;;;;;5010657;28;20074;-74
2021/05/31 12:57:48;;;;;;;3.13;2.30;;;31.70;30.80;;;;;;5008808;28;20036;-75
2021/05/31 13:00:25;;;;;;;7.03;2.90;;;31.90;31.40;;;;;;5007653;28;20056;-74
2021/05/31 13:03:02;;;;;;;3.38;2.22;;;31.90;31.20;;;;;;5001176;28;20030;-73
2021/05/31 13:05:31;;;;;;;4.63;3.00;;;32.30;30.20;;;;;;5010540;28;20026;-74
2021/05/31 13:08:00;;;;;;;3.63;2.80;;;32.50;30.70;;;;;;5006450;28;20041;-75